< Typhoon 199802 1998 Season Typhoon 199804 >
Typhoon 199803 (PENNY)
General InformationDetailed Track InformationTrack Information on Google MapsList of All Images || Disaster Info.ResourceGoogle EarthGE AnimationAtom FeedGeoJSON
Detalied Best Track Wind (Time Zone = UTC)
Year Month Day Hour Lat. Long. Wind (kt) Gust (kt) Direc. of Major Storm Axis Radius of Major Storm Axis (nm) Radius of Minor Storm Axis (nm) Direc. of Major Gale Axis Radius of Major Gale Axis (nm) Radius of Minor Gale Axis (nm) Image
1998 8 6 00 12.0 127.4 0 0 - - - - - - Image
1998 8 6 06 12.7 126.8 0 0 - - - - - - Image
1998 8 6 12 13.3 126.5 0 0 - - - - - - Image
1998 8 6 18 14.3 126.2 0 0 - - - - - - Image
1998 8 7 00 15.2 125.8 0 0 - - - - - - Image
1998 8 7 06 16.0 125.0 0 0 - - - - - - Image
1998 8 7 12 16.4 124.1 0 0 - - - - - - Image
1998 8 7 18 16.8 123.2 0 0 - - - - - - Image
1998 8 8 00 17.1 122.2 0 0 - - - - - - Image
1998 8 8 06 17.6 121.1 0 0 - - - - - - Image
1998 8 8 12 18.2 119.7 0 0 - - - - - - Image
1998 8 8 18 18.9 118.8 0 0 - - - - - - Image
1998 8 9 00 19.3 117.6 35 0 - - - symmetric 30 30 Image
1998 8 9 06 19.4 116.6 40 0 - - - symmetric 50 50 Image
1998 8 9 12 19.5 115.9 40 0 - - - symmetric 50 50 Image
1998 8 9 18 19.8 115.1 45 0 - - - symmetric 80 80 Image
1998 8 10 00 20.1 114.3 45 0 - - - symmetric 100 100 Image
1998 8 10 06 20.3 113.5 50 0 - - - symmetric 120 120 Image
1998 8 10 12 20.4 112.5 50 0 - - - SE 140 100 Image
1998 8 10 18 20.9 111.6 45 0 - - - SE 120 100 Image
1998 8 11 00 21.9 111.0 40 0 - - - SE 120 100 Image
1998 8 11 06 22.9 110.1 35 0 - - - SE 80 60 Image
1998 8 11 12 23.7 108.9 0 0 - - - - - - Image
Japan Meteorological Agency Best Track Data | Correction Date : 1999-01-11
< Typhoon 199802 1998 Season Typhoon 199804 >

Help